Terminal Aerodrome Forecast
Issued by NWS Atlanta, GA

Home | Current Version | Previous Version | Text Only | Print | Product List | Glossary On
Versions: 1 2 3 4 5 6 7 8 9 10 11 12 13 14 15 16 17 18 19 20 21 22 23 24 25 26 27 28 29 30 31 32 33 34 35 36 37 38 39 40
000
FTUS42 KFFC 292141 AAB
TAFATL
TAF AMD
KATL 292141Z 2922/3024 19008KT P6SM SCT045
     FM292300 19007KT P6SM BKN035
     FM300500 17007KT P6SM BKN035
     FM301100 23010KT 5SM -RA BR OVC012
     FM301300 25010KT 5SM -RA BR BKN008 OVC012
     FM301600 29012KT P6SM BKN035
     FM302000 30014KT P6SM FEW035=

USA.gov is the U.S. government's official web portal to all federal, state and local government web resources and services.